Bandar-E Anzali, Iran
Current Conditions -  °F | °C
As of 1:00 PM on Wednesday 26 Nov 2014 (Local Time) from OIGG Reporting Station
Haze Haze  
Wind Chill: 44°   Ceiling: 8000
Heat Index: 48°   Visibility: 3mi
Dew Point: 46°   Wind: 9mph
Humidity: 93%   Direction: 310°NW
Pressure: 30.18"   Gusts: NA
Location:  37.47°N, 49.45°E
Report Text: OIGG 261000Z 31008KT 5000 BR FEW010TCU SCT015BKN080 09/08 Q1022
Loading
Personal Weather Stations






























Interactive Weather Map New forecast layout! Learn more

10-Day Weather Forecast

Advertisements
Track Severe Weather on mobile